Time;durP1;ratioP1;P1;durP2;ratioP2;P2;SDS_P1;SDS_P2;PMS_P1;PMS_P2;Temp;Humidity;BMP_temperature;BMP_pressure;BME280_temperature;BME280_humidity;BME280_pressure;Samples;Min_cycle;Max_cycle;Signal;HPM_P1;HPM_P2
2023/07/04 00:01:00;;;;;;;2.08;1.23;;;15.80;99.90;;;;;;4980666;28;20038;-87
2023/07/04 00:03:27;;;;;;;2.28;1.52;;;15.80;99.90;;;;;;4975476;28;20035;-86
2023/07/04 00:05:55;;;;;;;3.95;1.40;;;15.80;99.90;;;;;;4979172;28;20027;-86
2023/07/04 00:08:22;;;;;;;3.72;1.73;;;15.70;99.90;;;;;;4990935;28;20524;-88
2023/07/04 00:10:50;;;;;;;6.15;1.65;;;15.70;99.90;;;;;;4978801;28;20030;-88
2023/07/04 00:13:17;;;;;;;3.33;1.42;;;15.70;99.90;;;;;;4965226;28;20522;-87
2023/07/04 00:15:48;;;;;;;4.45;1.30;;;15.60;99.90;;;;;;4989756;28;20036;-87
2023/07/04 00:18:17;;;;;;;4.63;1.27;;;15.60;99.90;;;;;;4972117;28;20136;-86
2023/07/04 00:20:42;;;;;;;2.13;1.50;;;15.60;99.90;;;;;;4959800;28;20053;-88
2023/07/04 00:23:08;;;;;;;5.15;1.95;;;15.60;99.90;;;;;;4961529;28;20058;-88
2023/07/04 00:25:34;;;;;;;2.13;1.42;;;15.50;99.90;;;;;;4967270;28;20653;-88
2023/07/04 00:28:05;;;;;;;3.72;1.45;;;15.50;99.90;;;;;;4991943;28;20030;-86
2023/07/04 00:30:32;;;;;;;2.60;1.48;;;15.50;99.90;;;;;;4970167;28;20037;-86
2023/07/04 00:32:58;;;;;;;2.45;1.42;;;15.50;99.90;;;;;;4955881;28;20034;-88
2023/07/04 00:35:24;;;;;;;2.20;1.80;;;15.40;99.90;;;;;;4960118;28;20125;-87
2023/07/04 00:37:49;;;;;;;3.85;1.58;;;15.40;99.90;;;;;;4980553;28;20129;-88
2023/07/04 00:40:16;;;;;;;2.88;1.50;;;15.40;99.90;;;;;;4966398;28;20042;-86
2023/07/04 00:42:45;;;;;;;2.10;1.15;;;15.40;99.90;;;;;;4969134;28;20392;-87
2023/07/04 00:45:19;;;;;;;2.25;1.40;;;15.30;99.90;;;;;;4969712;28;20037;-87
2023/07/04 00:47:59;;;;;;;3.95;1.42;;;15.30;99.90;;;;;;4986235;28;20097;-88
2023/07/04 00:50:29;;;;;;;3.17;1.63;;;15.30;99.90;;;;;;4984723;28;20035;-87
2023/07/04 00:52:58;;;;;;;2.38;1.45;;;15.30;99.90;;;;;;4981149;28;20230;-87
2023/07/04 00:55:25;;;;;;;3.85;1.50;;;15.20;99.90;;;;;;4989285;28;20054;-88
2023/07/04 00:57:51;;;;;;;4.03;1.30;;;15.20;99.90;;;;;;4958848;28;20568;-88
2023/07/04 01:00:23;;;;;;;2.35;1.42;;;15.20;99.90;;;;;;4965945;28;20049;-86
2023/07/04 01:02:52;;;;;;;2.80;1.40;;;15.10;99.90;;;;;;4967386;28;20030;-86
2023/07/04 01:05:33;;;;;;;3.97;1.50;;;15.10;99.90;;;;;;4961574;28;20031;-87
2023/07/04 01:08:40;;;;;;;3.75;1.70;;;15.10;99.90;;;;;;4980062;28;20026;-85
2023/07/04 01:11:15;;;;;;;2.45;1.60;;;15.20;99.90;;;;;;4904774;29;20036;-86
2023/07/04 01:13:43;;;;;;;1.77;1.50;;;15.20;99.90;;;;;;4972717;28;20440;-87
2023/07/04 01:16:15;;;;;;;2.13;1.50;;;15.20;99.90;;;;;;4995168;28;20388;-86
2023/07/04 01:18:44;;;;;;;2.78;1.60;;;15.10;99.90;;;;;;5009496;28;20026;-86
2023/07/04 01:21:12;;;;;;;2.35;1.58;;;15.10;99.90;;;;;;4996789;28;20345;-87
2023/07/04 01:24:12;;;;;;;3.30;1.80;;;15.10;99.90;;;;;;4991111;28;20469;-87
2023/07/04 01:26:41;;;;;;;2.80;1.70;;;15.10;99.90;;;;;;4981499;28;20030;-87
2023/07/04 01:29:12;;;;;;;3.72;1.90;;;15.00;99.90;;;;;;4999159;28;20638;-88
2023/07/04 01:31:40;;;;;;;2.92;1.38;;;15.00;99.90;;;;;;4990377;28;20399;-88
2023/07/04 01:34:08;;;;;;;3.30;2.00;;;14.90;99.90;;;;;;4983484;28;20401;-87
2023/07/04 01:36:40;;;;;;;3.75;2.20;;;14.80;99.90;;;;;;4994251;28;20030;-88
2023/07/04 01:39:14;;;;;;;3.00;1.90;;;14.80;99.90;;;;;;4965502;28;20042;-85
2023/07/04 01:41:45;;;;;;;4.43;2.20;;;14.80;99.90;;;;;;4997284;28;20034;-85
2023/07/04 01:44:13;;;;;;;4.30;2.35;;;14.80;99.90;;;;;;4995086;28;20109;-86
2023/07/04 01:46:57;;;;;;;2.95;1.90;;;14.80;99.90;;;;;;4992109;28;20195;-87
2023/07/04 01:49:23;;;;;;;5.78;2.15;;;14.80;99.90;;;;;;4986604;28;20066;-87
2023/07/04 01:51:48;;;;;;;2.85;2.10;;;14.80;99.90;;;;;;4967060;28;20030;-85
2023/07/04 01:54:18;;;;;;;3.45;2.22;;;14.80;99.90;;;;;;4959980;28;20038;-86
2023/07/04 01:56:47;;;;;;;2.53;1.88;;;14.80;99.90;;;;;;4994925;28;20042;-86
2023/07/04 01:59:13;;;;;;;5.68;2.38;;;14.80;99.90;;;;;;4972079;28;20035;-86
2023/07/04 02:01:39;;;;;;;2.45;1.90;;;14.80;99.90;;;;;;5004048;28;20030;-87
2023/07/04 02:04:05;;;;;;;5.20;1.98;;;14.70;99.90;;;;;;4968827;28;20040;-86
2023/07/04 02:06:31;;;;;;;6.32;1.70;;;14.70;99.90;;;;;;4971586;28;20034;-85
2023/07/04 02:08:57;;;;;;;4.38;2.17;;;14.70;99.90;;;;;;4978941;28;20027;-87
2023/07/04 02:11:23;;;;;;;3.60;1.98;;;14.60;99.90;;;;;;4953881;28;20031;-85
2023/07/04 02:13:49;;;;;;;3.70;2.08;;;14.70;99.90;;;;;;4975929;28;20040;-85
2023/07/04 02:16:14;;;;;;;4.68;2.30;;;14.60;99.90;;;;;;4980676;28;20045;-86
2023/07/04 02:18:40;;;;;;;2.40;2.00;;;14.60;99.90;;;;;;4982414;28;20042;-88
2023/07/04 02:21:06;;;;;;;3.47;2.10;;;14.60;99.90;;;;;;4956485;28;20476;-86
2023/07/04 02:23:32;;;;;;;3.13;2.25;;;14.60;99.90;;;;;;4989825;28;20040;-88
2023/07/04 02:25:58;;;;;;;2.67;2.03;;;14.60;99.90;;;;;;5000933;28;20030;-87
2023/07/04 02:28:23;;;;;;;3.55;1.90;;;14.60;99.90;;;;;;4986593;28;20030;-87
2023/07/04 02:30:57;;;;;;;5.25;2.17;;;14.60;99.90;;;;;;4977801;28;20049;-86
2023/07/04 02:33:25;;;;;;;;;;;14.60;99.90;;;;;;4994052;28;20030;-87
2023/07/04 02:35:51;;;;;;;5.78;2.10;;;14.60;99.90;;;;;;4976570;28;19917;-86
2023/07/04 02:38:19;;;;;;;3.55;1.98;;;14.60;99.90;;;;;;4975441;28;20023;-85
2023/07/04 02:40:47;;;;;;;4.43;2.22;;;14.70;99.90;;;;;;4981138;28;20018;-87
2023/07/04 02:43:15;;;;;;;3.80;2.50;;;14.60;99.90;;;;;;4978321;28;20031;-86
2023/07/04 02:45:42;;;;;;;5.18;2.85;;;14.60;99.90;;;;;;4999777;28;20026;-86
2023/07/04 02:48:10;;;;;;;2.85;2.00;;;14.60;99.90;;;;;;4995956;28;20094;-88
2023/07/04 02:50:37;;;;;;;5.47;1.92;;;14.50;99.90;;;;;;4967586;28;20023;-85
2023/07/04 02:53:03;;;;;;;6.07;2.85;;;14.50;99.90;;;;;;4967068;28;20034;-88
2023/07/04 02:55:29;;;;;;;5.10;2.20;;;14.60;99.90;;;;;;4970928;28;20034;-89
2023/07/04 02:57:55;;;;;;;4.88;2.17;;;14.50;99.90;;;;;;4981440;28;20030;-86
2023/07/04 03:00:21;;;;;;;3.33;2.38;;;14.50;99.90;;;;;;4985792;28;20042;-87
2023/07/04 03:02:48;;;;;;;4.68;2.20;;;14.50;99.90;;;;;;4956362;28;20582;-87
2023/07/04 03:05:15;;;;;;;4.38;2.20;;;14.50;99.90;;;;;;4964146;28;20374;-89
2023/07/04 03:07:41;;;;;;;4.57;2.30;;;14.40;99.90;;;;;;4979772;28;20027;-87
2023/07/04 03:10:10;;;;;;;4.18;2.05;;;14.40;99.90;;;;;;4961177;28;20169;-89
2023/07/04 03:12:36;;;;;;;6.05;1.90;;;14.40;99.90;;;;;;4966583;28;20035;-86
2023/07/04 03:15:06;;;;;;;3.95;2.28;;;14.50;99.90;;;;;;4963142;28;20039;-86
2023/07/04 03:17:35;;;;;;;2.35;2.00;;;14.50;99.90;;;;;;4993561;28;20125;-88
2023/07/04 03:20:06;;;;;;;3.63;1.88;;;14.50;99.90;;;;;;4963206;28;20066;-87
2023/07/04 03:22:32;;;;;;;3.80;1.98;;;14.50;99.90;;;;;;4986677;28;20159;-86
2023/07/04 03:24:59;;;;;;;4.15;1.70;;;14.50;99.90;;;;;;4975498;28;20489;-86
2023/07/04 03:27:26;;;;;;;3.35;1.80;;;14.60;99.90;;;;;;5007363;28;20030;-86
2023/07/04 03:29:52;;;;;;;3.47;2.20;;;14.60;99.90;;;;;;4960489;28;20085;-87
2023/07/04 03:32:19;;;;;;;3.78;2.28;;;14.50;99.90;;;;;;4966634;28;20559;-87
2023/07/04 03:34:46;;;;;;;3.70;1.90;;;14.60;99.90;;;;;;4983424;28;20034;-87
2023/07/04 03:37:12;;;;;;;5.28;2.17;;;14.60;99.90;;;;;;4978936;28;20062;-85
2023/07/04 03:39:41;;;;;;;3.90;1.92;;;14.60;99.90;;;;;;4979681;28;20034;-85
2023/07/04 03:42:07;;;;;;;3.22;2.00;;;14.60;99.90;;;;;;4977257;28;21576;-86
2023/07/04 03:44:33;;;;;;;3.58;2.13;;;14.70;99.90;;;;;;4979296;28;20058;-85
2023/07/04 03:46:59;;;;;;;2.60;1.85;;;14.70;99.90;;;;;;4960291;28;20023;-86
2023/07/04 03:49:25;;;;;;;3.00;1.52;;;14.70;99.90;;;;;;4985099;28;20025;-85
2023/07/04 03:51:50;;;;;;;4.18;1.95;;;14.70;99.90;;;;;;4980691;28;20032;-85
2023/07/04 03:54:17;;;;;;;3.33;2.05;;;14.70;99.90;;;;;;4970417;28;20042;-85
2023/07/04 03:56:45;;;;;;;1.95;1.50;;;14.70;99.90;;;;;;4962586;28;20126;-87
2023/07/04 03:59:11;;;;;;;4.45;2.20;;;14.70;99.90;;;;;;4971201;28;20059;-87
2023/07/04 04:01:37;;;;;;;3.28;1.95;;;14.70;99.90;;;;;;4980218;28;20081;-84
2023/07/04 04:04:02;;;;;;;1.80;1.70;;;14.70;99.90;;;;;;4960530;28;20125;-86
2023/07/04 04:06:28;;;;;;;3.85;2.28;;;14.70;99.90;;;;;;4987034;28;20385;-85
2023/07/04 04:08:54;;;;;;;3.40;2.10;;;14.70;99.90;;;;;;4959447;28;20115;-84
2023/07/04 04:11:20;;;;;;;4.88;2.33;;;14.70;99.90;;;;;;4983413;28;20552;-84
2023/07/04 04:13:46;;;;;;;3.85;2.10;;;14.70;99.90;;;;;;4978195;28;20038;-85
2023/07/04 04:16:12;;;;;;;3.92;2.03;;;14.70;99.90;;;;;;4956404;28;20036;-85
2023/07/04 04:18:38;;;;;;;2.55;2.00;;;14.70;99.90;;;;;;4965507;28;20035;-86
2023/07/04 04:21:04;;;;;;;2.92;1.75;;;14.70;99.90;;;;;;4983368;28;20031;-85
2023/07/04 04:23:29;;;;;;;2.83;1.80;;;14.70;99.90;;;;;;4958293;28;20034;-86
2023/07/04 04:25:57;;;;;;;4.50;1.70;;;14.80;99.90;;;;;;4954620;28;20030;-86
2023/07/04 04:28:23;;;;;;;1.80;1.67;;;14.80;99.90;;;;;;4980705;28;20034;-87
2023/07/04 04:30:49;;;;;;;3.58;2.13;;;14.90;99.90;;;;;;4986017;28;20125;-85
2023/07/04 04:33:16;;;;;;;5.85;1.98;;;14.90;99.90;;;;;;4953699;28;20042;-85
2023/07/04 04:35:44;;;;;;;3.63;2.00;;;15.00;99.90;;;;;;4978150;28;20393;-85
2023/07/04 04:38:10;;;;;;;2.85;1.98;;;15.00;99.90;;;;;;4975613;28;20026;-85
2023/07/04 04:40:37;;;;;;;4.25;2.15;;;15.00;99.90;;;;;;4984256;28;20078;-86
2023/07/04 04:43:03;;;;;;;5.10;2.38;;;15.00;99.90;;;;;;4967621;28;20041;-85
2023/07/04 04:45:29;;;;;;;3.90;2.42;;;15.00;99.90;;;;;;4971945;28;20129;-84
2023/07/04 04:47:55;;;;;;;4.15;2.20;;;15.10;99.90;;;;;;4982895;28;20054;-85
2023/07/04 04:50:25;;;;;;;4.70;1.90;;;15.10;99.90;;;;;;4970659;28;20194;-84
2023/07/04 04:52:52;;;;;;;3.25;1.90;;;15.20;99.90;;;;;;4972369;28;20033;-84
2023/07/04 04:55:18;;;;;;;3.63;2.47;;;15.20;99.90;;;;;;4992315;28;20382;-85
2023/07/04 04:57:44;;;;;;;3.85;2.05;;;15.30;99.90;;;;;;4974919;28;20047;-85
2023/07/04 05:00:12;;;;;;;3.92;2.50;;;15.40;99.90;;;;;;4960198;28;20049;-85
2023/07/04 05:02:38;;;;;;;5.05;2.58;;;15.40;99.90;;;;;;4994666;28;20080;-86
2023/07/04 05:05:04;;;;;;;2.47;2.22;;;15.40;99.90;;;;;;4980306;28;20500;-86
2023/07/04 05:07:30;;;;;;;2.63;2.05;;;15.50;99.90;;;;;;4965531;28;20063;-86
2023/07/04 05:10:00;;;;;;;2.45;2.05;;;15.50;99.90;;;;;;5004007;28;20038;-85
2023/07/04 05:12:26;;;;;;;3.15;2.47;;;15.60;99.90;;;;;;4980840;28;20042;-85
2023/07/04 05:14:52;;;;;;;4.60;2.10;;;15.70;99.90;;;;;;4971118;28;20041;-84
2023/07/04 05:17:17;;;;;;;3.47;2.13;;;15.70;99.90;;;;;;4996559;28;20039;-86
2023/07/04 05:19:46;;;;;;;4.13;2.47;;;15.80;99.90;;;;;;4986720;28;20127;-86
2023/07/04 05:22:12;;;;;;;4.00;2.25;;;15.90;99.90;;;;;;4985701;28;20026;-86
2023/07/04 05:24:38;;;;;;;2.67;2.17;;;16.00;99.90;;;;;;4979427;28;20628;-84
2023/07/04 05:27:04;;;;;;;3.70;2.30;;;16.10;99.90;;;;;;4997064;28;20119;-85
2023/07/04 05:29:30;;;;;;;2.97;2.15;;;16.30;99.90;;;;;;4969130;28;20023;-85
2023/07/04 05:31:55;;;;;;;3.58;2.20;;;16.40;99.90;;;;;;4969588;28;20219;-85
2023/07/04 05:34:21;;;;;;;2.75;2.40;;;16.60;99.90;;;;;;4985859;28;20038;-86
2023/07/04 05:36:47;;;;;;;3.40;2.17;;;16.90;99.90;;;;;;4962043;28;20038;-85
2023/07/04 05:39:13;;;;;;;4.22;2.00;;;17.20;99.90;;;;;;4974776;28;20115;-86
2023/07/04 05:41:39;;;;;;;2.67;2.10;;;17.40;99.90;;;;;;4975380;28;20033;-85
2023/07/04 05:44:10;;;;;;;3.72;2.15;;;17.80;99.90;;;;;;4968711;28;20064;-86
2023/07/04 05:46:36;;;;;;;3.00;2.40;;;18.00;99.90;;;;;;4976790;28;20053;-87
2023/07/04 05:49:03;;;;;;;2.78;2.20;;;18.30;99.90;;;;;;4957050;28;20042;-86
2023/07/04 05:51:29;;;;;;;4.13;2.08;;;18.60;99.90;;;;;;4966519;28;20030;-85
2023/07/04 05:53:55;;;;;;;2.90;1.92;;;18.90;99.90;;;;;;4980606;28;20049;-84
2023/07/04 05:56:27;;;;;;;4.35;2.38;;;19.20;99.90;;;;;;4983595;28;20563;-85
2023/07/04 05:58:55;;;;;;;3.03;2.05;;;19.50;99.90;;;;;;4989037;28;20037;-84
2023/07/04 06:01:32;;;;;;;4.18;2.53;;;19.70;99.90;;;;;;5002076;28;20034;-85
2023/07/04 06:03:58;;;;;;;4.55;2.17;;;19.90;99.90;;;;;;4970779;28;20034;-85
2023/07/04 06:06:48;;;;;;;2.80;2.30;;;20.20;99.90;;;;;;4976795;28;20035;-86
2023/07/04 06:09:15;;;;;;;7.28;2.50;;;20.30;99.90;;;;;;4978933;28;20061;-85
2023/07/04 06:11:45;;;;;;;3.55;2.20;;;20.50;99.90;;;;;;4993432;28;20029;-85
2023/07/04 06:14:21;;;;;;;3.72;2.15;;;20.80;99.90;;;;;;4999421;28;20130;-86
2023/07/04 06:16:47;;;;;;;7.95;3.00;;;21.00;99.90;;;;;;5000559;28;20026;-86
2023/07/04 06:19:13;;;;;;;5.13;2.85;;;21.10;99.90;;;;;;4985532;28;20096;-85
2023/07/04 06:21:39;;;;;;;3.75;2.50;;;21.40;99.90;;;;;;5005184;28;20026;-87
2023/07/04 06:24:05;;;;;;;3.75;2.50;;;21.70;99.90;;;;;;4961991;28;20030;-86
2023/07/04 06:26:32;;;;;;;3.05;2.63;;;21.90;99.90;;;;;;4971128;28;20038;-86
2023/07/04 06:28:59;;;;;;;3.13;2.28;;;22.10;99.90;;;;;;4981845;28;20035;-84
2023/07/04 06:31:26;;;;;;;6.55;2.70;;;22.40;99.90;;;;;;4963337;28;20038;-86
2023/07/04 06:33:54;;;;;;;6.78;3.00;;;22.60;99.90;;;;;;4981796;28;20033;-86
2023/07/04 06:36:20;;;;;;;4.47;2.88;;;22.90;99.90;;;;;;4976522;28;20049;-84
2023/07/04 06:38:46;;;;;;;5.00;3.28;;;23.10;99.90;;;;;;4985467;28;20180;-86
2023/07/04 06:41:14;;;;;;;6.35;2.80;;;23.30;99.80;;;;;;4965786;28;20817;-86
2023/07/04 06:43:45;;;;;;;4.38;2.75;;;23.40;99.90;;;;;;4969555;28;20089;-86
2023/07/04 06:46:12;;;;;;;5.50;2.72;;;23.60;97.20;;;;;;4967610;28;20041;-86
2023/07/04 06:48:38;;;;;;;7.05;3.28;;;23.80;97.50;;;;;;4988381;28;20030;-86
2023/07/04 06:51:12;;;;;;;6.60;3.10;;;23.90;94.50;;;;;;4996990;28;20101;-84
2023/07/04 06:53:38;;;;;;;5.47;3.50;;;24.00;95.00;;;;;;4994888;28;20042;-84
2023/07/04 06:56:14;;;;;;;6.72;3.55;;;24.10;94.80;;;;;;4996110;28;20698;-87
2023/07/04 06:58:42;;;;;;;5.28;3.47;;;24.30;93.10;;;;;;5009168;28;20049;-85
2023/07/04 07:01:10;;;;;;;4.40;3.03;;;24.20;92.50;;;;;;4964822;28;20053;-86
2023/07/04 07:03:36;;;;;;;8.98;3.92;;;24.50;91.10;;;;;;4986414;28;20034;-86
2023/07/04 07:06:07;;;;;;;4.85;3.65;;;24.20;90.30;;;;;;4977131;28;20037;-85
2023/07/04 07:08:33;;;;;;;4.90;3.33;;;24.30;91.70;;;;;;4980663;28;20034;-89
2023/07/04 07:11:09;;;;;;;5.45;3.53;;;24.00;91.00;;;;;;4995715;28;20120;-86
2023/07/04 07:13:35;;;;;;;;;;;24.00;92.90;;;;;;4998826;28;20433;-85
2023/07/04 07:16:11;;;;;;;7.22;4.07;;;24.00;91.20;;;;;;4959837;28;19917;-86
2023/07/04 07:18:39;;;;;;;6.90;3.50;;;24.00;91.00;;;;;;4983089;28;20031;-87
2023/07/04 07:21:06;;;;;;;6.72;4.15;;;24.20;88.70;;;;;;4978919;28;20057;-86
2023/07/04 07:23:33;;;;;;;4.65;3.45;;;24.30;88.80;;;;;;4953298;28;20462;-87
2023/07/04 07:26:01;;;;;;;7.30;4.18;;;24.50;87.30;;;;;;4989012;28;20835;-86
2023/07/04 07:28:27;;;;;;;6.72;3.50;;;24.70;85.80;;;;;;4977568;28;20484;-85
2023/07/04 07:31:01;;;;;;;5.30;3.90;;;25.00;87.40;;;;;;4981540;28;20026;-85
2023/07/04 07:33:26;;;;;;;8.25;4.10;;;25.30;86.90;;;;;;4992597;28;20068;-86
2023/07/04 07:35:52;;;;;;;10.98;4.22;;;25.40;83.60;;;;;;4963362;28;20093;-85
2023/07/04 07:38:18;;;;;;;10.00;3.95;;;25.40;81.60;;;;;;4990029;28;20390;-88
2023/07/04 07:40:50;;;;;;;7.30;4.32;;;25.30;77.50;;;;;;4994186;28;20026;-86
2023/07/04 07:43:16;;;;;;;9.68;4.68;;;25.00;76.50;;;;;;4988121;28;20023;-86
2023/07/04 07:45:42;;;;;;;8.38;3.58;;;24.50;76.20;;;;;;4984608;28;20366;-87
2023/07/04 07:48:07;;;;;;;11.50;4.18;;;24.10;80.30;;;;;;4965294;28;20081;-86
2023/07/04 07:50:33;;;;;;;8.40;4.43;;;23.70;81.30;;;;;;4961748;28;20037;-85
2023/07/04 07:52:59;;;;;;;7.78;4.57;;;23.30;80.70;;;;;;4945790;28;20046;-87
2023/07/04 07:55:24;;;;;;;7.38;3.97;;;23.20;86.40;;;;;;4982994;28;20061;-87
2023/07/04 07:57:50;;;;;;;8.63;3.80;;;23.00;83.70;;;;;;4969116;28;20077;-87
2023/07/04 08:00:16;;;;;;;6.53;4.20;;;22.80;85.10;;;;;;4958023;28;20046;-85
2023/07/04 08:02:42;;;;;;;11.20;4.80;;;22.50;86.10;;;;;;4961168;28;20050;-86
2023/07/04 08:05:08;;;;;;;9.85;4.00;;;22.40;86.70;;;;;;4940068;28;20202;-85
2023/07/04 08:07:34;;;;;;;6.68;4.10;;;22.60;85.60;;;;;;4989788;28;20034;-86
2023/07/04 08:09:59;;;;;;;9.20;4.38;;;22.90;82.60;;;;;;4989827;28;20241;-86
2023/07/04 08:12:44;;;;;;;8.52;4.88;;;23.00;82.70;;;;;;4972218;28;20125;-85
2023/07/04 08:15:13;;;;;;;8.55;4.47;;;23.10;83.20;;;;;;4980018;28;20035;-85
2023/07/04 08:17:39;;;;;;;7.85;4.22;;;23.40;81.20;;;;;;4990410;28;20032;-85
2023/07/04 08:20:06;;;;;;;6.93;3.92;;;23.60;82.40;;;;;;4965189;28;20129;-84
2023/07/04 08:22:31;;;;;;;8.07;4.10;;;23.80;82.10;;;;;;4990214;28;20039;-85
2023/07/04 08:24:58;;;;;;;10.55;6.00;;;23.90;80.00;;;;;;4965045;28;20122;-85
2023/07/04 08:27:26;;;;;;;7.18;4.05;;;24.00;79.70;;;;;;4973317;28;20090;-87
2023/07/04 08:29:52;;;;;;;9.77;4.07;;;24.20;78.60;;;;;;4990669;28;20440;-88
2023/07/04 08:32:18;;;;;;;10.55;4.38;;;24.30;75.70;;;;;;4973686;28;20043;-88
2023/07/04 08:34:47;;;;;;;9.48;3.97;;;24.40;80.40;;;;;;4981250;28;20030;-87
2023/07/04 08:37:14;;;;;;;7.70;4.18;;;24.60;78.30;;;;;;4980037;28;20043;-86
2023/07/04 08:39:46;;;;;;;5.95;3.88;;;24.90;75.00;;;;;;4991651;28;20125;-85
2023/07/04 08:42:15;;;;;;;6.78;3.90;;;25.10;72.40;;;;;;4982415;28;20046;-85
2023/07/04 08:44:47;;;;;;;5.53;4.13;;;25.30;73.20;;;;;;4968867;28;20035;-85
2023/07/04 08:47:16;;;;;;;11.32;6.00;;;25.30;71.00;;;;;;4981550;28;20028;-84
2023/07/04 08:50:22;;;;;;;13.02;4.30;;;25.40;70.30;;;;;;4985732;28;20045;-84
2023/07/04 08:53:15;;;;;;;9.70;4.82;;;25.10;66.00;;;;;;4876663;29;20443;-87
2023/07/04 08:56:00;;;;;;;11.93;4.75;;;24.80;70.80;;;;;;4971533;28;20069;-86
2023/07/04 08:58:37;;;;;;;8.15;4.38;;;24.40;73.80;;;;;;4984901;28;20037;-85
2023/07/04 09:01:10;;;;;;;12.05;4.90;;;24.10;75.00;;;;;;4984877;28;20092;-85
2023/07/04 09:04:05;;;;;;;9.15;4.20;;;24.00;79.00;;;;;;4983041;28;20489;-86
2023/07/04 09:06:44;;;;;;;8.82;3.95;;;23.80;70.40;;;;;;4970807;28;20093;-86
2023/07/04 09:09:39;;;;;;;7.53;4.28;;;23.80;73.70;;;;;;4990843;28;20065;-86
2023/07/04 09:12:06;;;;;;;5.82;4.10;;;23.60;75.40;;;;;;4992472;28;20456;-86
2023/07/04 09:14:57;;;;;;;8.77;4.00;;;23.60;75.50;;;;;;4971414;28;20065;-86
2023/07/04 09:17:30;;;;;;;7.78;4.30;;;23.70;73.20;;;;;;4962052;28;20034;-86
2023/07/04 09:19:58;;;;;;;10.43;4.88;;;23.60;73.80;;;;;;4988284;28;20080;-88
2023/07/04 09:22:24;;;;;;;9.20;4.35;;;23.40;71.60;;;;;;4991782;28;20065;-87
2023/07/04 09:24:50;;;;;;;10.25;4.82;;;23.40;74.90;;;;;;4954162;28;20038;-87
2023/07/04 09:27:16;;;;;;;8.45;4.32;;;23.40;77.40;;;;;;4997983;28;20055;-86
2023/07/04 09:29:43;;;;;;;10.85;4.90;;;23.30;76.50;;;;;;4968570;28;20040;-86
2023/07/04 09:32:10;;;;;;;12.13;5.13;;;23.20;74.80;;;;;;4974354;28;20058;-87
2023/07/04 09:34:46;;;;;;;7.68;4.35;;;23.10;76.80;;;;;;4950195;28;20082;-88
2023/07/04 09:37:16;;;;;;;9.32;4.82;;;23.10;77.50;;;;;;4981267;28;20038;-87
2023/07/04 09:39:55;;;;;;;7.18;4.25;;;23.10;79.10;;;;;;4969575;28;20062;-88
2023/07/04 09:42:39;;;;;;;11.45;4.70;;;23.20;74.50;;;;;;4991187;28;20030;-86
2023/07/04 09:45:08;;;;;;;7.00;4.32;;;23.20;76.40;;;;;;4969186;28;20033;-87
2023/07/04 09:47:36;;;;;;;9.55;5.13;;;23.30;70.60;;;;;;4985554;28;20038;-87
2023/07/04 09:50:08;;;;;;;7.03;4.28;;;23.30;71.90;;;;;;4965380;28;20641;-86
2023/07/04 09:52:34;;;;;;;10.10;4.55;;;23.30;68.50;;;;;;5007903;28;20708;-86
2023/07/04 09:55:23;;;;;;;8.77;4.43;;;23.20;71.30;;;;;;4968826;28;20126;-88
2023/07/04 09:57:49;;;;;;;7.93;4.30;;;23.20;75.70;;;;;;4989822;28;20050;-87
2023/07/04 10:00:24;;;;;;;8.57;4.80;;;23.20;74.90;;;;;;4991582;28;20415;-86
2023/07/04 10:02:52;;;;;;;;;;;23.30;70.00;;;;;;4977579;28;20293;-86
2023/07/04 10:05:31;;;;;;;7.20;4.45;;;23.30;72.70;;;;;;4990326;28;19914;-86
2023/07/04 10:08:06;;;;;;;10.02;4.70;;;23.30;73.10;;;;;;4974226;28;20038;-86
2023/07/04 10:10:37;;;;;;;7.97;5.63;;;23.20;69.60;;;;;;4961872;28;20042;-88
2023/07/04 10:13:06;;;;;;;8.30;5.15;;;23.10;69.90;;;;;;4989509;28;20030;-88
2023/07/04 10:15:39;;;;;;;8.25;4.70;;;23.00;64.80;;;;;;4992065;28;20026;-87
2023/07/04 10:18:06;;;;;;;9.65;4.80;;;23.10;72.30;;;;;;4974146;28;20509;-88
2023/07/04 10:20:39;;;;;;;7.82;4.80;;;23.20;72.50;;;;;;4973846;28;20038;-88
2023/07/04 10:23:08;;;;;;;7.68;4.45;;;23.40;73.40;;;;;;4982430;28;20126;-88
2023/07/04 10:25:35;;;;;;;7.30;4.78;;;23.50;70.00;;;;;;4966921;28;20108;-88
2023/07/04 10:28:12;;;;;;;8.50;5.13;;;23.40;70.80;;;;;;4948371;28;20031;-87
2023/07/04 10:30:43;;;;;;;8.88;5.00;;;23.40;69.70;;;;;;4984640;28;20030;-86
2023/07/04 10:33:31;;;;;;;11.80;5.60;;;23.30;68.60;;;;;;4951986;28;20363;-87
2023/07/04 10:35:57;;;;;;;7.50;4.72;;;23.20;70.20;;;;;;4987521;28;20038;-88
2023/07/04 10:38:35;;;;;;;9.15;5.35;;;23.00;69.50;;;;;;4955719;28;20603;-87
2023/07/04 10:41:32;;;;;;;6.78;5.10;;;23.00;72.10;;;;;;5000043;28;20034;-88
2023/07/04 10:44:03;;;;;;;8.40;5.30;;;23.00;70.50;;;;;;4982215;28;20039;-89
2023/07/04 10:46:32;;;;;;;10.07;5.45;;;23.00;70.80;;;;;;4937737;28;20109;-88
2023/07/04 10:49:06;;;;;;;12.05;5.43;;;23.10;71.30;;;;;;4988927;28;20105;-86
2023/07/04 10:51:36;;;;;;;8.65;5.53;;;23.10;68.30;;;;;;4970342;28;20415;-88
2023/07/04 10:54:03;;;;;;;8.05;5.72;;;23.30;69.60;;;;;;4959210;28;20043;-88
2023/07/04 10:56:34;;;;;;;10.05;6.32;;;23.40;65.40;;;;;;4989897;28;20115;-87
2023/07/04 10:59:12;;;;;;;9.38;5.97;;;23.30;63.30;;;;;;4970097;28;20162;-89
2023/07/04 11:01:46;;;;;;;10.18;6.03;;;23.40;69.00;;;;;;4977828;28;20035;-87
2023/07/04 11:04:27;;;;;;;8.77;5.82;;;23.50;66.40;;;;;;4974339;28;20042;-88
2023/07/04 11:07:04;;;;;;;10.30;6.57;;;23.60;62.80;;;;;;4989491;28;20030;-87
2023/07/04 11:09:39;;;;;;;12.35;6.68;;;23.60;70.50;;;;;;4953492;28;20022;-87
2023/07/04 11:12:11;;;;;;;11.27;6.22;;;23.80;68.00;;;;;;4972637;28;20377;-87
2023/07/04 11:14:40;;;;;;;12.50;6.43;;;23.90;67.80;;;;;;4970061;28;20045;-89
2023/07/04 11:17:10;;;;;;;12.43;7.18;;;24.20;70.50;;;;;;4954697;28;20105;-88
2023/07/04 11:20:19;;;;;;;11.07;6.88;;;24.20;58.20;;;;;;4985652;28;20034;-88
2023/07/04 11:22:50;;;;;;;10.25;7.15;;;24.30;63.20;;;;;;4978512;28;20034;-89
2023/07/04 11:25:25;;;;;;;14.27;7.55;;;24.50;65.60;;;;;;4986857;28;20533;-87
2023/07/04 11:28:16;;;;;;;10.93;7.05;;;24.70;60.00;;;;;;4972717;28;20030;-88
2023/07/04 11:30:45;;;;;;;10.73;7.30;;;24.70;63.30;;;;;;4969048;28;20042;-88
2023/07/04 11:34:01;;;;;;;11.50;7.32;;;24.80;63.80;;;;;;4968056;28;20034;-90
2023/07/04 11:36:35;;;;;;;14.18;7.47;;;24.80;60.90;;;;;;4991427;28;20057;-88
2023/07/04 11:39:04;;;;;;;10.98;7.50;;;24.90;62.90;;;;;;4966031;28;20062;-89
2023/07/04 11:41:38;;;;;;;10.20;6.70;;;25.00;60.70;;;;;;4978649;28;20039;-87
2023/07/04 11:44:21;;;;;;;9.45;6.43;;;25.00;59.80;;;;;;4973170;28;20150;-88
2023/07/04 11:47:04;;;;;;;10.00;7.03;;;25.00;63.00;;;;;;4983005;28;20088;-89
2023/07/04 11:49:32;;;;;;;10.32;7.03;;;25.10;61.60;;;;;;4953871;28;20027;-89
2023/07/04 11:52:25;;;;;;;12.25;8.07;;;25.20;62.10;;;;;;4970444;28;20114;-88
2023/07/04 11:55:07;;;;;;;12.57;7.57;;;25.50;59.70;;;;;;4997893;28;20077;-88
2023/07/04 11:57:55;;;;;;;14.23;9.50;;;25.70;61.10;;;;;;4999329;28;20116;-88
2023/07/04 12:00:44;;;;;;;11.50;8.07;;;25.70;56.40;;;;;;4965904;28;20034;-90
2023/07/04 12:03:21;;;;;;;10.52;7.47;;;25.50;57.80;;;;;;4988725;28;20104;-88
2023/07/04 12:05:57;;;;;;;9.45;6.78;;;25.40;60.00;;;;;;4986765;28;20041;-90
2023/07/04 12:08:23;;;;;;;;;;;25.30;63.30;;;;;;4997310;28;20026;-88
2023/07/04 12:10:49;;;;;;;11.45;6.88;;;25.20;61.00;;;;;;4988379;28;20312;-89
2023/07/04 12:13:20;;;;;;;8.57;6.57;;;25.10;63.00;;;;;;4974809;28;20137;-88
2023/07/04 12:15:51;;;;;;;8.88;6.22;;;25.00;63.50;;;;;;4988539;28;20034;-89
2023/07/04 12:18:28;;;;;;;10.13;6.40;;;24.90;62.70;;;;;;4974593;28;20049;-89
2023/07/04 12:20:56;;;;;;;8.07;6.10;;;24.80;65.50;;;;;;4948504;28;20043;-88
2023/07/04 12:23:23;;;;;;;9.00;7.00;;;24.80;66.20;;;;;;4946434;28;20042;-88
2023/07/04 12:25:52;;;;;;;10.80;7.45;;;25.00;62.50;;;;;;4974361;28;20085;-89
2023/07/04 12:28:23;;;;;;;10.27;7.50;;;25.00;58.10;;;;;;4952549;28;20072;-87
2023/07/04 12:30:52;;;;;;;10.00;7.18;;;25.00;57.30;;;;;;4950205;28;20064;-88
2023/07/04 12:33:23;;;;;;;10.20;7.03;;;25.10;60.10;;;;;;4947832;28;20149;-88
2023/07/04 12:35:55;;;;;;;11.52;8.40;;;25.40;63.40;;;;;;4948994;28;20058;-87
2023/07/04 12:38:29;;;;;;;12.15;7.63;;;25.70;62.20;;;;;;4964382;28;20125;-88
2023/07/04 12:40:57;;;;;;;11.07;7.13;;;26.10;59.40;;;;;;4985646;28;20031;-87
2023/07/04 12:43:29;;;;;;;14.50;8.43;;;26.30;60.70;;;;;;4949107;28;20035;-87
2023/07/04 12:46:10;;;;;;;12.63;7.90;;;26.30;53.90;;;;;;4977090;28;20027;-87
2023/07/04 12:48:56;;;;;;;11.73;8.45;;;26.10;58.30;;;;;;4967478;28;20126;-87
2023/07/04 12:51:25;;;;;;;10.20;7.65;;;26.10;60.40;;;;;;4963431;28;20397;-88
2023/07/04 12:53:53;;;;;;;10.77;7.47;;;26.10;58.80;;;;;;4967873;28;20038;-88
2023/07/04 12:56:20;;;;;;;13.68;9.73;;;26.10;60.30;;;;;;4956457;28;20030;-87
2023/07/04 12:58:47;;;;;;;11.77;9.38;;;26.00;58.90;;;;;;4952523;28;20045;-87
2023/07/04 13:01:24;;;;;;;13.88;9.73;;;26.00;60.30;;;;;;4975319;28;20037;-87